createdAt,value
2022-12-16T00:00:13.496Z,61
2022-12-16T00:01:57.066Z,60.9
2022-12-16T00:03:41.029Z,60.7
2022-12-16T00:05:24.643Z,60.3
2022-12-16T00:07:08.346Z,60
2022-12-16T00:08:52.068Z,60.1
2022-12-16T00:10:35.655Z,60.2
2022-12-16T00:12:19.429Z,60.3
2022-12-16T00:14:03.084Z,60.4
2022-12-16T00:15:46.685Z,60.5
2022-12-16T00:17:30.571Z,60.5
2022-12-16T00:19:14.255Z,60.5
2022-12-16T00:20:58.021Z,60.6
2022-12-16T00:22:41.668Z,60.6
2022-12-16T00:24:25.327Z,60.6
2022-12-16T00:26:09.060Z,60.6
2022-12-16T00:27:52.776Z,60.7
2022-12-16T00:29:36.559Z,60.7
2022-12-16T00:31:20.233Z,60.7
2022-12-16T00:33:03.934Z,60.8
2022-12-16T00:34:47.601Z,60.8
2022-12-16T00:36:31.373Z,60.8
2022-12-16T00:38:15.010Z,60.9
2022-12-16T00:39:58.748Z,61
2022-12-16T00:41:42.412Z,61
2022-12-16T00:43:26.036Z,61
2022-12-16T00:45:09.692Z,61
2022-12-16T00:46:53.513Z,61
2022-12-16T00:48:37.294Z,61
2022-12-16T00:50:20.936Z,61
2022-12-16T00:52:04.673Z,61
2022-12-16T00:53:48.347Z,61
2022-12-16T00:55:32.015Z,61.1
2022-12-16T00:57:15.560Z,61.1
2022-12-16T00:58:59.300Z,61.1
2022-12-16T01:00:43.042Z,61.1
2022-12-16T01:02:26.845Z,61.1
2022-12-16T01:04:10.462Z,61.1
2022-12-16T01:05:54.255Z,61.2
2022-12-16T01:07:37.964Z,61.2
2022-12-16T01:09:21.638Z,61.3
2022-12-16T01:11:05.303Z,61.3
2022-12-16T01:12:49.061Z,61.3
2022-12-16T01:14:32.706Z,61.3
2022-12-16T01:16:16.513Z,61.3
2022-12-16T01:18:00.167Z,61.3
2022-12-16T01:19:43.901Z,61.4
2022-12-16T01:21:27.587Z,61.4
2022-12-16T01:23:11.254Z,61.4
2022-12-16T01:24:54.975Z,61.4
2022-12-16T01:26:38.684Z,61.4
2022-12-16T01:28:22.203Z,61.4
2022-12-16T01:30:05.922Z,61.4
2022-12-16T01:31:49.782Z,61.4
2022-12-16T01:33:33.587Z,61.4
2022-12-16T01:35:17.011Z,61.4
2022-12-16T01:37:00.837Z,61.4
2022-12-16T01:38:44.608Z,61.4
2022-12-16T01:40:28.304Z,61.4
2022-12-16T01:42:11.829Z,61.5
2022-12-16T01:43:55.708Z,61.5
2022-12-16T01:45:39.420Z,61.5
2022-12-16T01:47:22.935Z,61.4
2022-12-16T01:49:06.801Z,61.5
2022-12-16T01:50:50.489Z,61.5
2022-12-16T01:52:34.300Z,61.5
2022-12-16T01:54:17.925Z,61.5
2022-12-16T01:56:01.651Z,61.5
2022-12-16T01:57:45.322Z,61.5
2022-12-16T01:59:29.034Z,61.5
2022-12-16T02:01:12.790Z,61.5
2022-12-16T02:02:56.371Z,61.5
2022-12-16T02:04:40.139Z,61.5
2022-12-16T02:06:23.833Z,61.5
2022-12-16T02:08:07.367Z,61.5
2022-12-16T02:09:51.126Z,61.6
2022-12-16T02:11:34.885Z,61.5
2022-12-16T02:13:18.592Z,61.5
2022-12-16T02:15:02.185Z,61.5
2022-12-16T02:16:46.068Z,61.5
2022-12-16T02:18:29.592Z,61.5
2022-12-16T02:20:13.284Z,61.6
2022-12-16T02:21:57.163Z,61.6
2022-12-16T02:23:40.844Z,61.6
2022-12-16T02:25:24.467Z,61.6
2022-12-16T02:27:08.109Z,61.6
2022-12-16T02:28:51.866Z,61.6
2022-12-16T02:30:35.511Z,61.6
2022-12-16T02:32:19.339Z,61.6
2022-12-16T02:34:03.061Z,61.6
2022-12-16T02:35:46.758Z,61.6
2022-12-16T02:37:30.386Z,61.6
2022-12-16T02:39:14.159Z,61.6
2022-12-16T02:40:57.886Z,61.6
2022-12-16T02:42:41.638Z,61.6
2022-12-16T02:44:25.253Z,61.6
2022-12-16T02:46:08.832Z,61.6
2022-12-16T02:47:52.673Z,61.6
2022-12-16T02:49:36.324Z,61.6
2022-12-16T02:51:19.936Z,61.6
2022-12-16T02:53:03.642Z,61.6
2022-12-16T02:54:47.365Z,61.6
2022-12-16T02:56:31.067Z,61.6
2022-12-16T02:58:14.802Z,61.6
2022-12-16T02:59:58.459Z,61.6
2022-12-16T03:01:42.167Z,61.6
2022-12-16T03:03:26.019Z,61.6
2022-12-16T03:05:09.679Z,61.6
2022-12-16T03:06:53.267Z,61.6
2022-12-16T03:08:37.083Z,61.6
2022-12-16T03:10:20.367Z,61.6
2022-12-16T03:12:04.068Z,61.6
2022-12-16T03:13:47.775Z,61.6
2022-12-16T03:15:31.513Z,61.6
2022-12-16T03:17:15.199Z,61.6
2022-12-16T03:18:58.881Z,61.6
2022-12-16T03:20:42.581Z,61.6
2022-12-16T03:22:26.280Z,61.6
2022-12-16T03:24:09.978Z,61.6
2022-12-16T03:25:53.690Z,61.6
2022-12-16T03:27:37.394Z,61.7
2022-12-16T03:29:21.086Z,61.6
2022-12-16T03:31:04.794Z,61.7
2022-12-16T03:32:48.498Z,61.7
2022-12-16T03:34:32.265Z,61.6
2022-12-16T03:36:15.956Z,61.6
2022-12-16T03:37:59.598Z,61.6
2022-12-16T03:39:43.302Z,61.7
2022-12-16T03:41:27.132Z,61.7
2022-12-16T03:43:10.706Z,61.7
2022-12-16T03:44:54.415Z,61.7
2022-12-16T03:46:38.373Z,61.7
2022-12-16T03:48:21.834Z,61.7
2022-12-16T03:50:05.514Z,61.7
2022-12-16T03:51:49.221Z,61.7
2022-12-16T03:53:33.059Z,61.7
2022-12-16T03:55:16.634Z,61.7
2022-12-16T03:57:00.326Z,61.7
2022-12-16T03:58:44.047Z,61.7
2022-12-16T04:00:27.737Z,61.7
2022-12-16T04:02:11.431Z,61.7
2022-12-16T04:03:55.187Z,61.7
2022-12-16T04:05:38.970Z,61.7
2022-12-16T04:07:22.553Z,61.7
2022-12-16T04:09:06.258Z,61.7
2022-12-16T04:10:50.011Z,61.7
2022-12-16T04:12:33.727Z,61.7
2022-12-16T04:14:17.400Z,61.8
2022-12-16T04:16:01.090Z,61.8
2022-12-16T04:17:44.761Z,61.8
2022-12-16T04:19:28.470Z,61.8
2022-12-16T04:21:12.262Z,61.8
2022-12-16T04:22:55.873Z,61.8
2022-12-16T04:24:39.598Z,61.8
2022-12-16T04:26:23.338Z,61.8
2022-12-16T04:28:06.983Z,61.8
2022-12-16T04:29:50.679Z,61.8
2022-12-16T04:31:34.388Z,61.8
2022-12-16T04:33:18.117Z,61.8
2022-12-16T04:35:01.866Z,61.8
2022-12-16T04:36:45.497Z,61.8
2022-12-16T04:38:29.218Z,61.8
2022-12-16T04:40:12.892Z,61.8
2022-12-16T04:41:56.620Z,61.8
2022-12-16T04:43:40.375Z,61.8
2022-12-16T04:45:24.007Z,61.8
2022-12-16T04:47:07.704Z,61.8
2022-12-16T04:48:51.441Z,61.8
2022-12-16T04:50:35.167Z,61.8
2022-12-16T04:52:18.821Z,61.8
2022-12-16T04:54:02.542Z,61.8
2022-12-16T04:55:46.228Z,61.8
2022-12-16T04:57:29.921Z,61.9
2022-12-16T04:59:13.620Z,61.8
2022-12-16T05:00:57.327Z,61.9
2022-12-16T05:02:41.036Z,61.9
2022-12-16T05:04:24.733Z,61.9
2022-12-16T05:06:08.476Z,61.9
2022-12-16T05:07:52.144Z,61.9
2022-12-16T05:09:35.949Z,61.9
2022-12-16T05:11:19.550Z,61.9
2022-12-16T05:13:03.251Z,61.9
2022-12-16T05:14:46.985Z,61.9
2022-12-16T05:16:30.676Z,61.9
2022-12-16T05:18:14.434Z,62
2022-12-16T05:19:58.140Z,61.9
2022-12-16T05:21:41.766Z,61.9
2022-12-16T05:23:25.472Z,61.9
2022-12-16T05:25:09.166Z,62
2022-12-16T05:26:52.899Z,62
2022-12-16T05:28:36.638Z,62
2022-12-16T05:30:20.272Z,62
2022-12-16T05:32:03.969Z,62
2022-12-16T05:33:47.675Z,62
2022-12-16T05:35:31.382Z,62
2022-12-16T05:37:15.121Z,62
2022-12-16T05:38:58.788Z,62
2022-12-16T05:40:42.502Z,62
2022-12-16T05:42:26.194Z,62
2022-12-16T05:44:09.894Z,62
2022-12-16T05:45:53.597Z,62
2022-12-16T05:47:37.300Z,62
2022-12-16T05:49:21.003Z,62.1
2022-12-16T05:51:04.703Z,62
2022-12-16T05:52:48.408Z,62
2022-12-16T05:54:32.115Z,62
2022-12-16T05:56:15.813Z,62
2022-12-16T05:57:59.533Z,62.1
2022-12-16T05:59:43.334Z,62
2022-12-16T06:01:26.985Z,62
2022-12-16T06:03:10.631Z,62
2022-12-16T06:04:54.361Z,62.1
2022-12-16T06:06:38.035Z,62.1
2022-12-16T06:08:21.768Z,62.1
2022-12-16T06:10:05.481Z,62.1
2022-12-16T06:11:49.156Z,62.1
2022-12-16T06:13:32.981Z,62.1
2022-12-16T06:15:16.696Z,62.1
2022-12-16T06:17:00.242Z,62.1
2022-12-16T06:18:43.952Z,62.1
2022-12-16T06:20:27.652Z,62.1
2022-12-16T06:22:11.356Z,62.1
2022-12-16T06:23:55.173Z,62.1
2022-12-16T06:25:38.759Z,62.1
2022-12-16T06:27:22.476Z,62.2
2022-12-16T06:29:06.165Z,62.1
2022-12-16T06:30:49.948Z,62.2
2022-12-16T06:32:33.596Z,62.2
2022-12-16T06:34:17.284Z,62.2
2022-12-16T06:36:00.977Z,62.2
2022-12-16T06:37:44.683Z,62.2
2022-12-16T06:39:28.123Z,62.2
2022-12-16T06:41:11.770Z,62.2
2022-12-16T06:42:55.520Z,62.2
2022-12-16T06:44:39.176Z,62.5
2022-12-16T06:46:22.931Z,62.8
2022-12-16T06:48:06.608Z,62.6
2022-12-16T06:49:50.309Z,62.7
2022-12-16T06:51:34.079Z,62.8
2022-12-16T06:53:17.742Z,62.7
2022-12-16T06:55:01.457Z,62.9
2022-12-16T06:56:45.119Z,62.9
2022-12-16T06:58:28.828Z,63
2022-12-16T07:00:12.603Z,63.1
2022-12-16T07:01:56.203Z,63
2022-12-16T07:03:40.080Z,63.1
2022-12-16T07:05:23.632Z,63.1
2022-12-16T07:07:07.404Z,63.2
2022-12-16T07:08:51.056Z,63.2
2022-12-16T07:10:34.767Z,63.2
2022-12-16T07:12:18.414Z,63.3
2022-12-16T07:14:02.327Z,63.3
2022-12-16T07:15:45.938Z,63.3
2022-12-16T07:17:29.608Z,63.3
2022-12-16T07:19:13.304Z,63.3
2022-12-16T07:20:56.935Z,63.4
2022-12-16T07:22:40.644Z,63.3
2022-12-16T07:24:24.376Z,63.3
2022-12-16T07:26:08.151Z,63.3
2022-12-16T07:27:51.745Z,63.4
2022-12-16T07:29:35.518Z,63.4
2022-12-16T07:31:19.146Z,63.4
2022-12-16T07:33:02.851Z,63.4
2022-12-16T07:34:46.594Z,63.4
2022-12-16T07:36:30.402Z,63.4
2022-12-16T07:38:14.010Z,63.4
2022-12-16T07:39:57.704Z,63.4
2022-12-16T07:41:41.366Z,63.4
2022-12-16T07:43:25.203Z,63.4
2022-12-16T07:45:08.812Z,63.4
2022-12-16T07:46:52.523Z,63.4
2022-12-16T07:48:36.373Z,63.4
2022-12-16T07:50:20.078Z,63.4
2022-12-16T07:52:03.717Z,63.3
2022-12-16T07:53:47.456Z,63.4
2022-12-16T07:55:31.200Z,63.3
2022-12-16T07:57:14.845Z,63.4
2022-12-16T07:58:58.560Z,63.4
2022-12-16T08:00:42.255Z,63.3
2022-12-16T08:02:25.976Z,63.2
2022-12-16T08:04:09.495Z,63.1
2022-12-16T08:05:53.250Z,63
2022-12-16T08:07:37.031Z,63
2022-12-16T08:09:20.690Z,63.1
2022-12-16T08:11:04.468Z,63
2022-12-16T08:12:48.018Z,62.9
2022-12-16T08:14:32.018Z,63
2022-12-16T08:16:15.669Z,63
2022-12-16T08:17:59.289Z,63
2022-12-16T08:19:43.019Z,63
2022-12-16T08:21:26.698Z,62.9
2022-12-16T08:23:10.383Z,62.9
2022-12-16T08:24:54.154Z,62.9
2022-12-16T08:26:37.771Z,63
2022-12-16T08:28:21.364Z,63
2022-12-16T08:30:05.222Z,63
2022-12-16T08:31:48.865Z,63.1
2022-12-16T08:33:32.447Z,63.1
2022-12-16T08:35:16.327Z,63.2
2022-12-16T08:36:59.969Z,63.3
2022-12-16T08:38:43.759Z,63.3
2022-12-16T08:40:27.498Z,63.4
2022-12-16T08:42:11.161Z,63.4
2022-12-16T08:43:54.821Z,63.4
2022-12-16T08:45:38.530Z,63.4
2022-12-16T08:47:22.111Z,63.5
2022-12-16T08:49:05.996Z,63.6
2022-12-16T08:50:49.655Z,63.6
2022-12-16T08:52:33.360Z,63.6
2022-12-16T08:54:17.109Z,63.6
2022-12-16T08:56:00.737Z,63.6
2022-12-16T08:57:44.465Z,63.6
2022-12-16T08:59:28.166Z,63.6
2022-12-16T09:01:11.687Z,63.7
2022-12-16T09:02:55.590Z,63.7
2022-12-16T09:04:39.224Z,63.8
2022-12-16T09:06:22.954Z,63.8
2022-12-16T09:08:06.645Z,63.9
2022-12-16T09:09:50.356Z,63.9
2022-12-16T09:11:34.084Z,63.9
2022-12-16T09:13:17.780Z,63.9
2022-12-16T09:15:01.492Z,64
2022-12-16T09:16:45.182Z,64.1
2022-12-16T09:18:28.842Z,63.9
2022-12-16T09:20:12.581Z,63.8
2022-12-16T09:21:56.291Z,63.7
2022-12-16T09:23:40.027Z,63.6
2022-12-16T09:25:23.605Z,63.5
2022-12-16T09:27:07.397Z,63.5
2022-12-16T09:28:51.170Z,63.4
2022-12-16T09:30:34.646Z,63.3
2022-12-16T09:32:18.461Z,63.2
2022-12-16T09:34:02.246Z,63.1
2022-12-16T09:35:45.917Z,63.1
2022-12-16T09:37:29.623Z,63
2022-12-16T09:39:13.317Z,63
2022-12-16T09:40:56.882Z,62.9
2022-12-16T09:42:40.780Z,63.1
2022-12-16T09:44:24.346Z,62.9
2022-12-16T09:46:08.106Z,62.7
2022-12-16T09:47:51.883Z,62.5
2022-12-16T09:49:35.562Z,62.8
2022-12-16T09:51:19.238Z,62.9
2022-12-16T09:53:02.788Z,62.6
2022-12-16T09:54:46.606Z,62.5
2022-12-16T09:56:30.350Z,62.8
2022-12-16T09:58:13.932Z,62.6
2022-12-16T09:59:57.722Z,62.7
2022-12-16T10:01:41.472Z,62.9
2022-12-16T10:03:24.976Z,63.4
2022-12-16T10:05:08.848Z,63.4
2022-12-16T10:06:52.634Z,63.3
2022-12-16T10:08:36.096Z,63.4
2022-12-16T10:10:19.801Z,63.4
2022-12-16T10:12:03.671Z,63.4
2022-12-16T10:13:47.347Z,63.4
2022-12-16T10:15:31.003Z,63.4
2022-12-16T10:17:14.835Z,63.5
2022-12-16T10:18:58.466Z,63.5
2022-12-16T10:20:42.214Z,63.9
2022-12-16T10:22:25.914Z,64.3
2022-12-16T10:24:09.583Z,65.2
2022-12-16T10:25:53.298Z,64.5
2022-12-16T10:27:37.033Z,64.6
2022-12-16T10:29:20.686Z,64.2
2022-12-16T10:31:04.390Z,64.4
2022-12-16T10:32:48.124Z,64.6
2022-12-16T10:36:15.517Z,64.1
2022-12-16T10:37:59.312Z,64.4
2022-12-16T10:39:42.789Z,64.3
2022-12-16T10:41:26.585Z,64.3
2022-12-16T10:43:10.333Z,64.1
2022-12-16T10:44:54.018Z,64
2022-12-16T10:46:37.888Z,64
2022-12-16T10:48:21.415Z,64
2022-12-16T10:50:05.012Z,64.1
2022-12-16T10:51:48.839Z,64.1
2022-12-16T10:53:32.438Z,64.4
2022-12-16T10:55:16.243Z,64.3
2022-12-16T10:56:59.958Z,64.3
2022-12-16T10:58:43.652Z,64.4
2022-12-16T11:00:27.395Z,64.3
2022-12-16T11:02:10.883Z,64.1
2022-12-16T11:03:54.744Z,64
2022-12-16T11:05:38.464Z,64.1
2022-12-16T11:07:22.155Z,64.1
2022-12-16T11:09:05.746Z,64
2022-12-16T11:10:49.541Z,63.5
2022-12-16T11:12:33.091Z,63.4
2022-12-16T11:14:16.980Z,63.6
2022-12-16T11:16:00.648Z,63.6
2022-12-16T11:17:44.199Z,63.3
2022-12-16T11:19:28.057Z,63.1
2022-12-16T11:21:11.795Z,63
2022-12-16T11:22:55.480Z,62.6
2022-12-16T11:24:39.279Z,62.5
2022-12-16T11:26:22.916Z,62.4
2022-12-16T11:28:06.600Z,62.2
2022-12-16T11:29:50.268Z,62.3
2022-12-16T11:31:33.980Z,62.7
2022-12-16T11:33:17.690Z,62.7
2022-12-16T11:35:01.401Z,62.5
2022-12-16T11:36:45.038Z,62.6
2022-12-16T11:38:28.820Z,62.6
2022-12-16T11:40:12.519Z,62.7
2022-12-16T11:41:56.224Z,62.9
2022-12-16T11:43:39.920Z,62.7
2022-12-16T11:45:23.642Z,62.7
2022-12-16T11:47:07.253Z,62.7
2022-12-16T11:48:50.861Z,62.8
2022-12-16T11:50:34.697Z,62.7
2022-12-16T11:52:18.427Z,62.8
2022-12-16T11:54:02.081Z,62.6
2022-12-16T11:55:45.668Z,62.8
2022-12-16T11:57:29.548Z,62.6
2022-12-16T11:59:13.274Z,62.8
2022-12-16T12:00:56.993Z,62.6
2022-12-16T12:02:40.668Z,62.8
2022-12-16T12:04:24.372Z,62.7
2022-12-16T12:06:07.998Z,62.7
2022-12-16T12:07:51.580Z,62.7
2022-12-16T12:09:35.394Z,62.6
2022-12-16T12:11:18.981Z,62.6
2022-12-16T12:13:02.984Z,62.7
2022-12-16T12:14:46.401Z,62.7
2022-12-16T12:16:30.215Z,62.6
2022-12-16T12:18:13.926Z,62.6
2022-12-16T12:19:57.687Z,62.6
2022-12-16T12:21:41.380Z,62.7
2022-12-16T12:23:25.107Z,62.6
2022-12-16T12:25:08.806Z,62.6
2022-12-16T12:26:52.493Z,62.6
2022-12-16T12:28:36.220Z,62.6
2022-12-16T12:30:19.723Z,62.6
2022-12-16T12:32:03.668Z,62.6
2022-12-16T12:33:47.167Z,62.6
2022-12-16T12:35:31.011Z,62.6
2022-12-16T12:37:14.699Z,62.6
2022-12-16T12:38:58.385Z,62.6
2022-12-16T12:40:42.011Z,62.6
2022-12-16T12:42:25.856Z,62.6
2022-12-16T12:44:09.462Z,62.7
2022-12-16T12:45:53.293Z,62.6
2022-12-16T12:47:36.912Z,62.6
2022-12-16T12:49:20.631Z,62.6
2022-12-16T12:51:04.146Z,62.7
2022-12-16T12:52:48.092Z,62.6
2022-12-16T12:54:31.732Z,62.6
2022-12-16T12:56:15.440Z,62.7
2022-12-16T12:57:59.072Z,62.6
2022-12-16T12:59:42.753Z,62.6
2022-12-16T13:01:26.558Z,62.7
2022-12-16T13:03:10.248Z,62.6
2022-12-16T13:04:53.767Z,62.7
2022-12-16T13:06:37.472Z,62.6
2022-12-16T13:08:21.316Z,62.6
2022-12-16T13:10:05.055Z,62.6
2022-12-16T13:11:48.768Z,62.6
2022-12-16T13:13:32.340Z,62.6
2022-12-16T13:15:16.130Z,62.6
2022-12-16T13:16:59.824Z,62.5
2022-12-16T13:18:43.393Z,62.5
2022-12-16T13:20:27.231Z,62.5
2022-12-16T13:22:10.975Z,62.5
2022-12-16T13:23:54.510Z,62.5
2022-12-16T13:25:38.226Z,62.6
2022-12-16T13:27:22.037Z,62.5
2022-12-16T13:29:05.604Z,62.6
2022-12-16T13:30:49.314Z,62.5
2022-12-16T13:32:33.041Z,62.5
2022-12-16T13:34:16.800Z,62.5
2022-12-16T13:36:00.415Z,62.5
2022-12-16T13:37:44.126Z,62.5
2022-12-16T13:39:27.824Z,62.5
2022-12-16T13:41:11.529Z,62.6
2022-12-16T13:42:55.218Z,62.6
2022-12-16T13:44:38.935Z,62.6
2022-12-16T13:46:22.648Z,62.6
2022-12-16T13:48:06.343Z,62.6
2022-12-16T13:49:50.057Z,62.6
2022-12-16T13:51:33.768Z,62.5
2022-12-16T13:53:17.451Z,62.6
2022-12-16T13:55:01.158Z,62.6
2022-12-16T13:56:44.865Z,62.6
2022-12-16T13:58:28.698Z,62.5
2022-12-16T14:00:12.271Z,62.6
2022-12-16T14:01:55.970Z,62.5
2022-12-16T14:03:39.835Z,62.6
2022-12-16T14:05:23.380Z,62.5
2022-12-16T14:07:07.076Z,62.5
2022-12-16T14:08:50.783Z,62.5
2022-12-16T14:10:34.492Z,62.6
2022-12-16T14:12:18.188Z,62.6
2022-12-16T14:14:01.890Z,62.6
2022-12-16T14:15:45.601Z,62.5
2022-12-16T14:17:29.302Z,62.6
2022-12-16T14:19:13.006Z,62.5
2022-12-16T14:20:56.758Z,62.5
2022-12-16T14:22:40.404Z,62.5
2022-12-16T14:24:24.220Z,62.5
2022-12-16T14:26:07.816Z,62.5
2022-12-16T14:27:51.511Z,62.5
2022-12-16T14:29:35.214Z,62.6
2022-12-16T14:31:18.933Z,62.5
2022-12-16T14:33:02.621Z,62.5
2022-12-16T14:34:46.424Z,62.5
2022-12-16T14:36:30.039Z,62.5
2022-12-16T14:38:13.734Z,62.6
2022-12-16T14:39:57.444Z,62.5
2022-12-16T14:41:41.295Z,62.5
2022-12-16T14:43:24.832Z,62.5
2022-12-16T14:45:08.528Z,62.5
2022-12-16T14:46:52.241Z,62.5
2022-12-16T14:48:35.938Z,62.5
2022-12-16T14:50:19.649Z,62.5
2022-12-16T14:52:03.376Z,62.5
2022-12-16T14:53:47.081Z,62.6
2022-12-16T14:55:30.762Z,62.5
2022-12-16T14:57:14.452Z,62.5
2022-12-16T14:58:58.155Z,62.5
2022-12-16T15:00:41.860Z,62.5
2022-12-16T15:02:25.568Z,62.5
2022-12-16T15:04:09.261Z,62.5
2022-12-16T15:05:53.014Z,62.6
2022-12-16T15:07:36.754Z,62.5
2022-12-16T15:09:20.517Z,62.5
2022-12-16T15:11:04.103Z,62.5
2022-12-16T15:12:47.780Z,62.5
2022-12-16T15:14:31.623Z,62.5
2022-12-16T15:16:15.207Z,62.6
2022-12-16T15:17:58.889Z,62.5
2022-12-16T15:19:42.587Z,62.4
2022-12-16T15:21:26.301Z,62.4
2022-12-16T15:23:09.990Z,62.4
2022-12-16T15:24:53.694Z,62.7
2022-12-16T15:26:37.399Z,62.7
2022-12-16T15:28:21.103Z,62.9
2022-12-16T15:30:04.811Z,62.9
2022-12-16T15:31:48.505Z,62.7
2022-12-16T15:33:32.209Z,62.5
2022-12-16T15:35:15.925Z,62.4
2022-12-16T15:36:59.618Z,62.2
2022-12-16T15:38:43.336Z,62.1
2022-12-16T15:40:27.025Z,62
2022-12-16T15:43:54.425Z,62
2022-12-16T15:45:38.118Z,61.9
2022-12-16T15:47:21.835Z,61.9
2022-12-16T15:49:05.554Z,61.9
2022-12-16T15:50:49.243Z,61.9
2022-12-16T15:52:32.946Z,61.9
2022-12-16T15:54:16.652Z,61.8
2022-12-16T15:56:00.351Z,61.8
2022-12-16T15:57:44.071Z,61.8
2022-12-16T15:59:27.761Z,61.8
2022-12-16T16:01:11.460Z,61.8
2022-12-16T16:02:55.182Z,61.7
2022-12-16T16:04:38.873Z,62
2022-12-16T16:06:22.581Z,62.9
2022-12-16T16:08:06.268Z,63.1
2022-12-16T16:09:49.963Z,63.7
2022-12-16T16:11:33.672Z,64.5
2022-12-16T16:13:17.373Z,65
2022-12-16T16:15:01.079Z,65
2022-12-16T16:16:44.788Z,65.4
2022-12-16T16:18:28.490Z,65.3
2022-12-16T16:20:12.188Z,64.8
2022-12-16T16:21:55.893Z,64.6
2022-12-16T16:23:39.589Z,64.2
2022-12-16T16:25:23.300Z,64.4
2022-12-16T16:27:07.006Z,64.5
2022-12-16T16:28:50.702Z,64.5
2022-12-16T16:30:34.416Z,64.4
2022-12-16T16:32:18.119Z,64.4
2022-12-16T16:34:01.816Z,64.5
2022-12-16T16:35:45.516Z,64.5
2022-12-16T16:37:29.220Z,64.7
2022-12-16T16:39:12.931Z,64.5
2022-12-16T16:40:56.629Z,64.5
2022-12-16T16:42:40.320Z,64.6
2022-12-16T16:44:24.047Z,64.5
2022-12-16T16:46:07.744Z,64.6
2022-12-16T16:47:51.423Z,64.6
2022-12-16T16:49:35.157Z,64.5
2022-12-16T16:51:18.841Z,64.6
2022-12-16T16:53:02.534Z,64.5
2022-12-16T16:54:46.249Z,64.5
2022-12-16T16:56:29.941Z,64.5
2022-12-16T16:58:13.649Z,64.5
2022-12-16T16:59:57.357Z,64.4
2022-12-16T17:01:41.059Z,64.5
2022-12-16T17:03:24.748Z,64.5
2022-12-16T17:05:08.456Z,64.6
2022-12-16T17:06:52.153Z,64.5
2022-12-16T17:08:35.870Z,64.5
2022-12-16T17:10:19.566Z,64.5
2022-12-16T17:12:03.279Z,64.5
2022-12-16T17:13:46.967Z,64.6
2022-12-16T17:15:30.685Z,64.7
2022-12-16T17:17:14.384Z,64.7
2022-12-16T17:18:58.104Z,64.9
2022-12-16T17:20:41.788Z,65.1
2022-12-16T17:22:25.488Z,65
2022-12-16T17:24:09.196Z,64.8
2022-12-16T17:25:52.902Z,64.9
2022-12-16T17:27:36.590Z,64.7
2022-12-16T17:29:20.300Z,64.6
2022-12-16T17:31:04.002Z,64.5
2022-12-16T17:32:47.717Z,64.6
2022-12-16T17:34:31.406Z,64.6
2022-12-16T17:36:15.111Z,64.3
2022-12-16T17:37:58.825Z,64.2
2022-12-16T17:39:42.509Z,64
2022-12-16T17:41:26.218Z,64.1
2022-12-16T17:43:09.957Z,64.2
2022-12-16T17:44:53.623Z,64.2
2022-12-16T17:46:37.329Z,64.2
2022-12-16T17:48:21.026Z,64.2
2022-12-16T17:50:04.750Z,64.2
2022-12-16T17:51:48.455Z,64.2
2022-12-16T17:53:32.153Z,64.1
2022-12-16T17:55:15.854Z,64.1
2022-12-16T17:58:43.238Z,64.1
2022-12-16T18:00:26.942Z,64
2022-12-16T18:02:10.650Z,64
2022-12-16T18:03:54.350Z,64
2022-12-16T18:05:38.062Z,63.9
2022-12-16T18:07:21.756Z,63.9
2022-12-16T18:09:05.459Z,63.9
2022-12-16T18:10:49.165Z,63.8
2022-12-16T18:12:32.865Z,63.9
2022-12-16T18:14:16.565Z,63.8
2022-12-16T18:16:00.275Z,63.7
2022-12-16T18:17:43.967Z,63.7
2022-12-16T18:19:27.676Z,63.7
2022-12-16T18:21:11.379Z,63.7
2022-12-16T18:22:55.088Z,63.7
2022-12-16T18:24:38.796Z,63.8
2022-12-16T18:26:22.484Z,63.7
2022-12-16T18:28:06.211Z,63.5
2022-12-16T18:29:49.892Z,63.5
2022-12-16T18:31:33.608Z,63.5
2022-12-16T18:33:17.298Z,63.5
2022-12-16T18:35:00.999Z,63.4
2022-12-16T18:36:44.702Z,63.4
2022-12-16T18:38:28.412Z,63.4
2022-12-16T18:40:12.110Z,63.3
2022-12-16T18:41:55.832Z,63
2022-12-16T18:43:39.520Z,63.1
2022-12-16T18:45:23.217Z,63.1
2022-12-16T18:47:06.920Z,63.2
2022-12-16T18:48:50.645Z,63.1
2022-12-16T18:50:34.328Z,63.1
2022-12-16T18:52:18.035Z,63.1
2022-12-16T18:54:01.736Z,63
2022-12-16T18:55:45.443Z,63
2022-12-16T18:57:29.145Z,63
2022-12-16T18:59:12.841Z,63
2022-12-16T19:00:56.698Z,62.9
2022-12-16T19:02:40.253Z,62.9
2022-12-16T19:04:23.938Z,62.8
2022-12-16T19:06:07.655Z,62.8
2022-12-16T19:07:51.359Z,62.8
2022-12-16T19:09:35.060Z,62.8
2022-12-16T19:11:18.764Z,62.7
2022-12-16T19:13:02.461Z,62.6
2022-12-16T19:14:46.168Z,62.5
2022-12-16T19:16:29.876Z,62.6
2022-12-16T19:18:13.589Z,62.8
2022-12-16T19:19:57.279Z,62.8
2022-12-16T19:21:40.983Z,62.7
2022-12-16T19:23:24.679Z,62.7
2022-12-16T19:25:08.391Z,62.6
2022-12-16T19:26:52.086Z,62.7
2022-12-16T19:28:35.786Z,62.7
2022-12-16T19:30:19.498Z,62.9
2022-12-16T19:32:03.203Z,63
2022-12-16T19:33:46.897Z,62.9
2022-12-16T19:35:30.605Z,63
2022-12-16T19:37:14.301Z,63.2
2022-12-16T19:38:58.013Z,63.1
2022-12-16T19:40:41.780Z,63
2022-12-16T19:42:25.416Z,63
2022-12-16T19:44:09.268Z,63
2022-12-16T19:45:52.820Z,63
2022-12-16T19:47:36.540Z,63
2022-12-16T19:49:20.230Z,60.1
2022-12-16T19:51:03.935Z,62.7
2022-12-16T19:52:47.787Z,62.7
2022-12-16T19:54:31.363Z,62.4
2022-12-16T19:56:15.050Z,61.7
2022-12-16T19:57:58.745Z,60.8
2022-12-16T19:59:42.447Z,60.7
2022-12-16T20:01:26.215Z,60.8
2022-12-16T20:03:09.866Z,60.9
2022-12-16T20:04:53.745Z,60.9
2022-12-16T20:06:37.266Z,61.5
2022-12-16T20:08:20.957Z,62.5
2022-12-16T20:10:04.683Z,62.3
2022-12-16T20:11:48.628Z,62.4
2022-12-16T20:13:32.074Z,62.6
2022-12-16T20:15:15.855Z,62.8
2022-12-16T20:16:59.505Z,63.1
2022-12-16T20:20:26.919Z,63
2022-12-16T20:22:10.589Z,63
2022-12-16T20:23:54.369Z,63
2022-12-16T20:25:37.990Z,63.1
2022-12-16T20:27:21.715Z,63.1
2022-12-16T20:29:05.465Z,62.6
2022-12-16T20:30:49.109Z,62.4
2022-12-16T20:32:32.858Z,62.3
2022-12-16T20:34:16.671Z,62.3
2022-12-16T20:36:00.202Z,62.1
2022-12-16T20:37:43.990Z,62.1
2022-12-16T20:39:27.607Z,62.1
2022-12-16T20:41:11.319Z,62
2022-12-16T20:42:55.022Z,62
2022-12-16T20:44:38.790Z,61.9
2022-12-16T20:46:22.448Z,62
2022-12-16T20:48:06.204Z,61.9
2022-12-16T20:49:49.833Z,61.9
2022-12-16T20:51:33.528Z,61.8
2022-12-16T20:53:17.238Z,61.7
2022-12-16T20:55:00.934Z,61.7
2022-12-16T20:56:44.629Z,61.6
2022-12-16T20:58:28.360Z,61.5
2022-12-16T21:00:12.099Z,61.5
2022-12-16T21:01:55.741Z,61.5
2022-12-16T21:03:39.504Z,61.5
2022-12-16T21:05:23.150Z,61.5
2022-12-16T21:07:06.839Z,61.4
2022-12-16T21:08:50.604Z,61.4
2022-12-16T21:10:34.250Z,61.4
2022-12-16T21:12:17.953Z,61.3
2022-12-16T21:14:01.679Z,61.3
2022-12-16T21:15:45.358Z,61.3
2022-12-16T21:17:29.133Z,61.2
2022-12-16T21:19:12.831Z,61.2
2022-12-16T21:20:56.468Z,61.1
2022-12-16T21:22:40.192Z,61.1
2022-12-16T21:24:23.881Z,61
2022-12-16T21:26:07.590Z,61
2022-12-16T21:27:51.281Z,61
2022-12-16T21:29:34.978Z,61
2022-12-16T21:31:18.684Z,60.9
2022-12-16T21:33:02.390Z,60.9
2022-12-16T21:34:46.094Z,60.9
2022-12-16T21:36:29.806Z,60.9
2022-12-16T21:38:13.496Z,60.8
2022-12-16T21:39:57.238Z,60.8
2022-12-16T21:41:40.912Z,60.8
2022-12-16T21:43:24.614Z,60.8
2022-12-16T21:45:08.312Z,60.8
2022-12-16T21:46:52.021Z,60.7
2022-12-16T21:48:35.712Z,60.7
2022-12-16T21:50:19.480Z,60.6
2022-12-16T21:52:03.121Z,60.6
2022-12-16T21:53:46.865Z,60.6
2022-12-16T21:55:30.522Z,60.6
2022-12-16T21:57:14.265Z,60.5
2022-12-16T21:58:57.926Z,60.5
2022-12-16T22:00:41.674Z,60.5
2022-12-16T22:02:25.348Z,60.5
2022-12-16T22:04:09.046Z,60.4
2022-12-16T22:05:52.849Z,60.4
2022-12-16T22:07:36.449Z,60.4
2022-12-16T22:09:20.203Z,60.4
2022-12-16T22:11:03.855Z,60.3
2022-12-16T22:12:47.555Z,60.3
2022-12-16T22:14:31.318Z,60.3
2022-12-16T22:16:15.067Z,60.3
2022-12-16T22:17:58.661Z,60.4
2022-12-16T22:19:42.369Z,60.4
2022-12-16T22:21:26.078Z,60.4
2022-12-16T22:23:09.796Z,60.4
2022-12-16T22:24:53.497Z,60.5
2022-12-16T22:26:37.172Z,60.1
2022-12-16T22:28:20.885Z,60.1
2022-12-16T22:30:04.586Z,60.1
2022-12-16T22:31:48.285Z,60
2022-12-16T22:33:31.987Z,60
2022-12-16T22:35:15.687Z,59.9
2022-12-16T22:36:59.454Z,60
2022-12-16T22:38:43.109Z,59.9
2022-12-16T22:40:26.792Z,59.9
2022-12-16T22:42:10.556Z,59.9
2022-12-16T22:43:54.201Z,59.9
2022-12-16T22:45:37.899Z,59.9
2022-12-16T22:47:21.637Z,59.8
2022-12-16T22:49:05.307Z,59.8
2022-12-16T22:50:49.007Z,59.8
2022-12-16T22:52:32.763Z,59.8
2022-12-16T22:54:16.562Z,59.7
2022-12-16T22:56:00.125Z,59.7
2022-12-16T22:57:43.837Z,59.7
2022-12-16T22:59:27.526Z,59.7
2022-12-16T23:01:11.242Z,59.7
2022-12-16T23:02:54.939Z,59.6
2022-12-16T23:04:38.700Z,59.7
2022-12-16T23:06:22.347Z,59.6
2022-12-16T23:08:06.039Z,59.6
2022-12-16T23:09:49.842Z,59.6
2022-12-16T23:11:33.450Z,59.6
2022-12-16T23:13:17.183Z,59.6
2022-12-16T23:15:01.017Z,59.5
2022-12-16T23:16:44.633Z,59.6